createdAt,value
2019-03-24T00:00:07.222Z,97862.11
2019-03-24T00:02:34.613Z,97853.35
2019-03-24T00:05:02.016Z,97848.63
2019-03-24T00:07:29.420Z,97859.99
2019-03-24T00:09:57.103Z,97857.66
2019-03-24T00:12:24.508Z,97860.48
2019-03-24T00:14:51.938Z,97861.44
2019-03-24T00:17:19.768Z,97858.17
2019-03-24T00:19:47.215Z,97853.82
2019-03-24T00:22:14.625Z,97848.16
2019-03-24T00:24:42.055Z,97851.72
2019-03-24T00:27:10.486Z,97846.72
2019-03-24T00:29:37.892Z,97844.06
2019-03-24T00:32:05.302Z,97851.05
2019-03-24T00:34:32.723Z,97849.73
2019-03-24T00:37:00.195Z,97849.70
2019-03-24T00:39:27.620Z,97846.56
2019-03-24T00:41:55.019Z,97838.41
2019-03-24T00:44:22.520Z,97838.34
2019-03-24T00:46:49.935Z,97842.40
2019-03-24T00:49:17.499Z,97830.65
2019-03-24T00:51:44.919Z,97832.43
2019-03-24T00:54:12.361Z,97832.59
2019-03-24T00:56:39.821Z,97836.25
2019-03-24T00:59:07.614Z,97837.29
2019-03-24T01:01:35.027Z,97835.14
2019-03-24T01:04:02.674Z,97829.77
2019-03-24T01:06:30.072Z,97830.81
2019-03-24T01:08:57.594Z,97834.97
2019-03-24T01:11:25.167Z,97830.84
2019-03-24T01:13:52.719Z,97836.65
2019-03-24T01:16:20.963Z,97824.80
2019-03-24T01:18:48.426Z,97827.44
2019-03-24T01:21:15.896Z,97818.42
2019-03-24T01:23:43.308Z,97827.15
2019-03-24T01:26:10.724Z,97823.03
2019-03-24T01:28:38.132Z,97833.94
2019-03-24T01:31:05.563Z,97836.08
2019-03-24T01:33:33.632Z,97835.56
2019-03-24T01:36:01.075Z,97835.45
2019-03-24T01:38:28.499Z,97832.82
2019-03-24T01:40:55.968Z,97827.38
2019-03-24T01:43:23.401Z,97836.85
2019-03-24T01:45:58.474Z,97826.50
2019-03-24T01:48:19.149Z,97838.23
2019-03-24T01:50:46.570Z,97838.70
2019-03-24T01:53:14.073Z,97838.60
2019-03-24T01:55:41.522Z,97835.45
2019-03-24T01:58:09.114Z,97831.39
2019-03-24T02:00:36.625Z,97832.33
2019-03-24T02:03:04.080Z,97828.20
2019-03-24T02:05:31.494Z,97833.06
2019-03-24T02:07:58.905Z,97823.13
2019-03-24T02:10:26.439Z,97827.67
2019-03-24T02:12:53.835Z,97822.97
2019-03-24T02:15:21.249Z,97836.73
2019-03-24T02:17:48.639Z,97825.62
2019-03-24T02:20:16.044Z,97831.84
2019-03-24T02:22:43.563Z,97826.73
2019-03-24T02:25:10.992Z,97827.56
2019-03-24T02:27:38.399Z,97831.17
2019-03-24T02:30:06.338Z,97828.09
2019-03-24T02:32:33.746Z,97823.34
2019-03-24T02:35:01.142Z,97832.91
2019-03-24T02:37:28.551Z,97834.47
2019-03-24T02:39:56.111Z,97832.53
2019-03-24T02:42:23.506Z,97832.17
2019-03-24T02:44:50.963Z,97833.38
2019-03-24T02:47:18.528Z,97835.10
2019-03-24T02:49:45.985Z,97841.33
2019-03-24T02:52:13.446Z,97834.63
2019-03-24T02:54:41.239Z,97831.30
2019-03-24T02:57:08.631Z,97831.17
2019-03-24T02:59:36.046Z,97834.15
2019-03-24T03:02:03.574Z,97835.09
2019-03-24T03:04:31.036Z,97837.51
2019-03-24T03:06:58.438Z,97832.81
2019-03-24T03:09:25.856Z,97834.14
2019-03-24T03:11:53.263Z,97836.67
2019-03-24T03:14:20.679Z,97835.89
2019-03-24T03:16:48.090Z,97839.70
2019-03-24T03:19:15.675Z,97840.83
2019-03-24T03:21:43.140Z,97842.42
2019-03-24T03:24:10.549Z,97841.17
2019-03-24T03:26:38.065Z,97840.00
2019-03-24T03:29:05.517Z,97836.55
2019-03-24T03:31:32.933Z,97841.09
2019-03-24T03:34:00.338Z,97846.02
2019-03-24T03:36:28.183Z,97843.59
2019-03-24T03:38:55.511Z,97844.94
2019-03-24T03:41:23.022Z,97848.86
2019-03-24T03:43:50.454Z,97850.73
2019-03-24T03:46:17.937Z,97847.14
2019-03-24T03:48:45.328Z,97844.25
2019-03-24T03:51:12.740Z,97841.63
2019-03-24T03:53:40.171Z,97841.09
2019-03-24T03:56:07.660Z,97844.99
2019-03-24T03:58:35.079Z,97842.52
2019-03-24T04:01:03.065Z,97843.91
2019-03-24T04:03:30.456Z,97854.21
2019-03-24T04:05:57.881Z,97855.84
2019-03-24T04:08:25.266Z,97853.29
2019-03-24T04:10:52.685Z,97850.27
2019-03-24T04:13:20.111Z,97853.80
2019-03-24T04:15:47.560Z,97860.33
2019-03-24T04:18:15.075Z,97855.86
2019-03-24T04:20:42.470Z,97857.90
2019-03-24T04:23:09.923Z,97861.67
2019-03-24T04:25:37.564Z,97862.00
2019-03-24T04:28:05.115Z,97858.83
2019-03-24T04:30:32.507Z,97852.78
2019-03-24T04:32:59.978Z,97862.56
2019-03-24T04:35:27.480Z,97859.29
2019-03-24T04:37:55.488Z,97862.13
2019-03-24T04:40:23.056Z,97865.09
2019-03-24T04:42:50.412Z,97867.20
2019-03-24T04:45:17.951Z,97865.45
2019-03-24T04:47:45.603Z,97866.16
2019-03-24T04:50:13.004Z,97867.93
2019-03-24T04:52:40.507Z,97875.37
2019-03-24T04:55:07.960Z,97877.91
2019-03-24T04:57:35.377Z,97878.83
2019-03-24T05:00:02.784Z,97886.94
2019-03-24T05:02:30.182Z,97879.21
2019-03-24T05:04:57.580Z,97888.50
2019-03-24T05:07:24.979Z,97890.01
2019-03-24T05:09:54.418Z,97886.14
2019-03-24T05:12:19.841Z,97895.34
2019-03-24T05:14:47.241Z,97891.88
2019-03-24T05:17:14.647Z,97891.15
2019-03-24T05:19:43.039Z,97891.53
2019-03-24T05:22:10.445Z,97895.23
2019-03-24T05:24:37.848Z,97894.83
2019-03-24T05:27:05.286Z,97902.02
2019-03-24T05:29:32.723Z,97902.83
2019-03-24T05:32:00.159Z,97899.64
2019-03-24T05:34:27.579Z,97901.41
2019-03-24T05:36:54.993Z,97907.05
2019-03-24T05:39:22.410Z,97911.46
2019-03-24T05:41:49.866Z,97909.98
2019-03-24T05:44:17.432Z,97910.88
2019-03-24T05:46:44.867Z,97905.03
2019-03-24T05:49:12.262Z,97907.55
2019-03-24T05:51:39.733Z,97909.11
2019-03-24T05:54:07.177Z,97911.88
2019-03-24T05:56:34.572Z,97916.12
2019-03-24T05:59:01.959Z,97913.18
2019-03-24T06:01:29.393Z,97908.69
2019-03-24T06:03:56.835Z,97912.50
2019-03-24T06:06:24.229Z,97923.86
2019-03-24T06:08:51.655Z,97920.28
2019-03-24T06:11:19.055Z,97919.17
2019-03-24T06:13:46.584Z,97927.28
2019-03-24T06:16:14.052Z,97923.03
2019-03-24T06:18:41.497Z,97924.91
2019-03-24T06:21:08.963Z,97917.33
2019-03-24T06:23:36.390Z,97922.42
2019-03-24T06:26:03.807Z,97925.65
2019-03-24T06:28:31.244Z,97921.69
2019-03-24T06:30:58.653Z,97924.16
2019-03-24T06:33:26.099Z,97926.32
2019-03-24T06:35:53.515Z,97928.37
2019-03-24T06:38:20.935Z,97924.21
2019-03-24T06:40:49.595Z,97918.63
2019-03-24T06:43:17.041Z,97922.27
2019-03-24T06:45:44.658Z,97928.04
2019-03-24T06:48:12.134Z,97925.31
2019-03-24T06:50:39.545Z,97920.82
2019-03-24T06:53:07.049Z,97925.21
2019-03-24T06:55:34.500Z,97927.11
2019-03-24T06:58:01.906Z,97927.42
2019-03-24T07:00:29.407Z,97928.16
2019-03-24T07:02:56.861Z,97925.33
2019-03-24T07:05:24.256Z,97926.29
2019-03-24T07:07:51.692Z,97925.16
2019-03-24T07:10:19.144Z,97923.27
2019-03-24T07:12:46.625Z,97922.06
2019-03-24T07:15:14.054Z,97919.42
2019-03-24T07:17:41.501Z,97925.28
2019-03-24T07:20:09.064Z,97925.19
2019-03-24T07:22:36.530Z,97926.96
2019-03-24T07:25:03.991Z,97930.59
2019-03-24T07:27:31.434Z,97927.97
2019-03-24T07:29:58.893Z,97927.64
2019-03-24T07:32:25.940Z,97927.83
2019-03-24T07:34:52.911Z,97925.26
2019-03-24T07:37:19.874Z,97925.55
2019-03-24T07:39:46.874Z,97926.94
2019-03-24T07:42:13.963Z,97926.00
2019-03-24T07:44:40.914Z,97923.73
2019-03-24T07:47:12.114Z,97924.12
2019-03-24T07:49:39.525Z,97921.88
2019-03-24T07:52:07.031Z,97916.23
2019-03-24T07:54:34.437Z,97911.83
2019-03-24T07:57:01.948Z,97912.39
2019-03-24T07:59:29.405Z,97910.07
2019-03-24T08:01:56.799Z,97910.73
2019-03-24T08:04:24.230Z,97906.88
2019-03-24T08:06:51.706Z,97910.77
2019-03-24T08:09:19.151Z,97910.02
2019-03-24T08:11:46.656Z,97913.68
2019-03-24T08:14:14.264Z,97903.42
2019-03-24T08:16:41.749Z,97903.64
2019-03-24T08:19:09.171Z,97899.25
2019-03-24T08:21:36.737Z,97896.78
2019-03-24T08:24:04.184Z,97897.78
2019-03-24T08:26:31.129Z,97897.23
2019-03-24T08:28:58.554Z,97898.10
2019-03-24T08:31:25.972Z,97893.61
2019-03-24T08:33:53.422Z,97893.27
2019-03-24T08:36:20.841Z,97896.96
2019-03-24T08:38:48.255Z,97886.61
2019-03-24T08:41:15.667Z,97886.28
2019-03-24T08:43:43.236Z,97883.72
2019-03-24T08:46:10.635Z,97882.01
2019-03-24T08:48:41.048Z,97886.05
2019-03-24T08:51:05.597Z,97886.66
2019-03-24T08:53:33.005Z,97888.61
2019-03-24T08:56:00.414Z,97883.58
2019-03-24T08:58:27.831Z,97880.22
2019-03-24T09:00:55.271Z,97876.81
2019-03-24T09:03:22.698Z,97871.15
2019-03-24T09:05:50.098Z,97863.47
2019-03-24T09:08:17.611Z,97869.48
2019-03-24T09:10:45.071Z,97876.23
2019-03-24T09:13:12.551Z,97870.11
2019-03-24T09:15:39.997Z,97863.37
2019-03-24T09:18:07.428Z,97860.72
2019-03-24T09:20:41.675Z,97866.02
2019-03-24T09:23:02.329Z,97859.45
2019-03-24T09:25:29.900Z,97861.77
2019-03-24T09:27:56.855Z,97855.85
2019-03-24T09:30:25.723Z,97854.86
2019-03-24T09:32:52.690Z,97859.41
2019-03-24T09:35:20.107Z,97852.50
2019-03-24T09:37:47.094Z,97848.13
2019-03-24T09:40:14.132Z,97841.72
2019-03-24T09:42:41.591Z,97841.50
2019-03-24T09:45:09.133Z,97834.40
2019-03-24T09:47:36.550Z,97839.59
2019-03-24T09:50:03.946Z,97832.76
2019-03-24T09:52:30.962Z,97829.16
2019-03-24T09:54:57.970Z,97836.56
2019-03-24T09:57:25.166Z,97830.50
2019-03-24T09:59:52.593Z,97828.35
2019-03-24T10:02:20.173Z,97822.00
2019-03-24T10:04:47.619Z,97822.13
2019-03-24T10:07:14.584Z,97824.20
2019-03-24T10:09:42.046Z,97822.08
2019-03-24T10:12:09.468Z,97818.34
2019-03-24T10:14:36.900Z,97813.61
2019-03-24T10:17:04.307Z,97806.73
2019-03-24T10:19:31.750Z,97802.92
2019-03-24T10:21:58.876Z,97800.98
2019-03-24T10:24:26.533Z,97797.77
2019-03-24T10:26:53.992Z,97799.46
2019-03-24T10:29:21.447Z,97795.97
2019-03-24T10:31:48.900Z,97789.35
2019-03-24T10:34:16.459Z,97785.21
2019-03-24T10:36:43.470Z,97782.98
2019-03-24T10:39:11.080Z,97776.28
2019-03-24T10:41:38.154Z,97761.55
2019-03-24T10:44:05.599Z,97762.98
2019-03-24T10:46:33.168Z,97764.88
2019-03-24T10:49:00.613Z,97759.96
2019-03-24T10:51:28.034Z,97756.06
2019-03-24T10:53:55.442Z,97758.39
2019-03-24T10:56:22.985Z,97752.06
2019-03-24T10:58:50.412Z,97753.06
2019-03-24T11:01:18.801Z,97749.73
2019-03-24T11:03:46.197Z,97746.85
2019-03-24T11:06:13.698Z,97740.83
2019-03-24T11:08:41.129Z,97747.06
2019-03-24T11:11:08.565Z,97739.19
2019-03-24T11:13:36.008Z,97735.50
2019-03-24T11:16:03.134Z,97731.72
2019-03-24T11:18:30.100Z,97731.55
2019-03-24T11:20:57.090Z,97724.94
2019-03-24T11:23:24.083Z,97731.66
2019-03-24T11:25:52.286Z,97726.59
2019-03-24T11:28:20.709Z,97728.16
2019-03-24T11:30:48.121Z,97723.90
2019-03-24T11:33:15.564Z,97724.48
2019-03-24T11:35:42.988Z,97721.88
2019-03-24T11:38:10.582Z,97717.12
2019-03-24T11:40:37.524Z,97701.59
2019-03-24T11:43:04.475Z,97714.81
2019-03-24T11:45:31.450Z,97701.86
2019-03-24T11:47:58.417Z,97703.20
2019-03-24T11:50:25.379Z,97700.08
2019-03-24T11:52:52.538Z,97702.75
2019-03-24T11:55:19.510Z,97694.81
2019-03-24T11:57:46.474Z,97694.44
2019-03-24T12:00:13.475Z,97686.02
2019-03-24T12:02:40.575Z,97690.41
2019-03-24T12:05:07.979Z,97683.20
2019-03-24T12:07:35.022Z,97679.82
2019-03-24T12:10:01.984Z,97682.58
2019-03-24T12:12:28.995Z,97666.04
2019-03-24T12:14:56.576Z,97662.93
2019-03-24T12:17:23.515Z,97661.02
2019-03-24T12:19:56.710Z,97657.08
2019-03-24T12:22:18.436Z,97651.72
2019-03-24T12:24:45.586Z,97652.34
2019-03-24T12:27:13.060Z,97645.05
2019-03-24T12:29:40.493Z,97639.11
2019-03-24T12:32:07.908Z,97630.59
2019-03-24T12:34:35.314Z,97625.80
2019-03-24T12:37:02.737Z,97622.20
2019-03-24T12:39:30.173Z,97622.73
2019-03-24T12:41:57.595Z,97616.92
2019-03-24T12:44:25.047Z,97619.65
2019-03-24T12:46:52.474Z,97621.28
2019-03-24T12:49:19.903Z,97616.13
2019-03-24T12:51:47.304Z,97606.38
2019-03-24T12:54:15.374Z,97601.67
2019-03-24T12:56:42.412Z,97603.26
2019-03-24T12:59:09.558Z,97591.58
2019-03-24T13:01:36.505Z,97592.05
2019-03-24T13:04:03.923Z,97588.00
2019-03-24T13:06:31.440Z,97591.04
2019-03-24T13:08:58.407Z,97580.66
2019-03-24T13:11:25.426Z,97580.20
2019-03-24T13:13:52.549Z,97577.00
2019-03-24T13:16:19.660Z,97564.30
2019-03-24T13:18:46.684Z,97571.34
2019-03-24T13:21:13.646Z,97568.09
2019-03-24T13:23:40.796Z,97566.45
2019-03-24T13:26:07.927Z,97563.27
2019-03-24T13:28:34.921Z,97562.00
2019-03-24T13:31:01.869Z,97558.20
2019-03-24T13:33:28.839Z,97554.56
2019-03-24T13:36:01.433Z,97548.20
2019-03-24T13:38:28.859Z,97549.46
2019-03-24T13:40:55.808Z,97545.28
2019-03-24T13:43:22.783Z,97547.73
2019-03-24T13:45:49.712Z,97544.43
2019-03-24T13:48:16.686Z,97538.84
2019-03-24T13:50:43.659Z,97540.88
2019-03-24T13:53:11.382Z,97535.34
2019-03-24T13:55:38.373Z,97527.22
2019-03-24T13:58:05.308Z,97526.80
2019-03-24T14:00:32.267Z,97525.13
2019-03-24T14:02:59.288Z,97521.66
2019-03-24T14:05:26.327Z,97517.66
2019-03-24T14:07:53.284Z,97518.78
2019-03-24T14:10:20.236Z,97515.34
2019-03-24T14:12:47.192Z,97514.02
2019-03-24T14:15:14.166Z,97504.22
2019-03-24T14:17:41.165Z,97509.31
2019-03-24T14:20:08.151Z,97505.62
2019-03-24T14:22:35.208Z,97507.47
2019-03-24T14:25:02.166Z,97507.06
2019-03-24T14:27:29.310Z,97501.47
2019-03-24T14:29:56.323Z,97496.60
2019-03-24T14:32:23.268Z,97500.19
2019-03-24T14:34:50.227Z,97498.91
2019-03-24T14:37:17.155Z,97501.34
2019-03-24T14:39:44.094Z,97506.12
2019-03-24T14:42:11.062Z,97498.59
2019-03-24T14:44:38.096Z,97499.67
2019-03-24T14:47:05.737Z,97500.96
2019-03-24T14:49:34.031Z,97487.41
2019-03-24T14:52:00.982Z,97486.78
2019-03-24T14:54:27.969Z,97483.27
2019-03-24T14:56:55.029Z,97482.03
2019-03-24T14:59:22.003Z,97480.85
2019-03-24T15:01:49.154Z,97483.84
2019-03-24T15:04:16.162Z,97477.59
2019-03-24T15:06:43.123Z,97480.07
2019-03-24T15:09:10.174Z,97470.54
2019-03-24T15:11:37.234Z,97471.99
2019-03-24T15:14:04.168Z,97470.36
2019-03-24T15:16:31.115Z,97464.64
2019-03-24T15:18:58.526Z,97467.09
2019-03-24T15:21:25.530Z,97469.45
2019-03-24T15:23:52.491Z,97464.59
2019-03-24T15:26:19.524Z,97468.68
2019-03-24T15:28:46.486Z,97466.73
2019-03-24T15:31:13.430Z,97467.58
2019-03-24T15:33:40.417Z,97471.77
2019-03-24T15:36:07.456Z,97472.34
2019-03-24T15:38:34.649Z,97463.83
2019-03-24T15:41:01.851Z,97465.20
2019-03-24T15:43:28.849Z,97470.58
2019-03-24T15:45:56.007Z,97462.94
2019-03-24T15:48:23.025Z,97462.00
2019-03-24T15:50:50.054Z,97458.38
2019-03-24T15:53:17.389Z,97456.82
2019-03-24T15:55:44.471Z,97460.41
2019-03-24T15:58:11.573Z,97457.04
2019-03-24T16:00:40.498Z,97456.31
2019-03-24T16:03:07.574Z,97456.81
2019-03-24T16:05:34.531Z,97458.95
2019-03-24T16:08:02.128Z,97464.49
2019-03-24T16:10:35.153Z,97460.91
2019-03-24T16:12:56.123Z,97466.13
2019-03-24T16:15:23.091Z,97458.61
2019-03-24T16:17:51.910Z,97468.66
2019-03-24T16:20:17.376Z,97460.17
2019-03-24T16:22:44.374Z,97459.99
2019-03-24T16:25:11.346Z,97464.23
2019-03-24T16:27:38.280Z,97466.77
2019-03-24T16:30:06.185Z,97466.20
2019-03-24T16:32:34.186Z,97467.20
2019-03-24T16:35:01.136Z,97473.43
2019-03-24T16:37:28.578Z,97469.77
2019-03-24T16:39:55.574Z,97470.20
2019-03-24T16:42:22.559Z,97475.32
2019-03-24T16:44:49.708Z,97473.84
2019-03-24T16:47:18.400Z,97471.79
2019-03-24T16:49:45.999Z,97466.77
2019-03-24T16:52:13.456Z,97463.56
2019-03-24T16:54:40.868Z,97472.83
2019-03-24T16:57:08.310Z,97472.13
2019-03-24T16:59:35.701Z,97481.36
2019-03-24T17:02:03.168Z,97473.71
2019-03-24T17:04:30.717Z,97472.77
2019-03-24T17:06:58.305Z,97473.59
2019-03-24T17:09:25.800Z,97472.50
2019-03-24T17:11:53.510Z,97476.16
2019-03-24T17:14:20.929Z,97476.73
2019-03-24T17:16:48.542Z,97475.07
2019-03-24T17:19:15.975Z,97481.11
2019-03-24T17:21:50.025Z,97485.03
2019-03-24T17:24:11.008Z,97483.02
2019-03-24T17:26:38.474Z,97488.45
2019-03-24T17:29:05.972Z,97487.91
2019-03-24T17:31:33.484Z,97493.75
2019-03-24T17:34:00.901Z,97502.13
2019-03-24T17:36:28.354Z,97499.88
2019-03-24T17:38:56.156Z,97508.02
2019-03-24T17:41:23.658Z,97511.50
2019-03-24T17:43:51.113Z,97514.41
2019-03-24T17:46:19.575Z,97525.23
2019-03-24T17:48:46.207Z,97524.84
2019-03-24T17:51:13.767Z,97522.63
2019-03-24T17:53:41.195Z,97522.55
2019-03-24T17:56:08.622Z,97521.82
2019-03-24T17:58:36.056Z,97526.04
2019-03-24T18:01:03.629Z,97522.98
2019-03-24T18:03:31.080Z,97536.47
2019-03-24T18:05:59.638Z,97535.83
2019-03-24T18:08:25.979Z,97539.03
2019-03-24T18:10:53.382Z,97537.59
2019-03-24T18:13:20.850Z,97536.73
2019-03-24T18:15:48.407Z,97549.17
2019-03-24T18:18:15.982Z,97546.87
2019-03-24T18:20:43.383Z,97555.17
2019-03-24T18:23:11.035Z,97564.92
2019-03-24T18:25:38.730Z,97561.23
2019-03-24T18:28:06.156Z,97563.13
2019-03-24T18:30:33.747Z,97568.70
2019-03-24T18:33:01.239Z,97568.21
2019-03-24T18:35:28.650Z,97574.53
2019-03-24T18:37:56.181Z,97575.44
2019-03-24T18:40:23.593Z,97577.63
2019-03-24T18:42:51.198Z,97576.38
2019-03-24T18:45:18.654Z,97583.94
2019-03-24T18:47:46.089Z,97581.97
2019-03-24T18:50:13.490Z,97583.03
2019-03-24T18:52:40.953Z,97581.55
2019-03-24T18:55:08.797Z,97582.53
2019-03-24T18:57:36.347Z,97592.29
2019-03-24T19:00:07.621Z,97583.53
2019-03-24T19:02:35.036Z,97584.37
2019-03-24T19:05:02.516Z,97580.48
2019-03-24T19:07:30.176Z,97576.27
2019-03-24T19:09:57.664Z,97581.45
2019-03-24T19:12:25.070Z,97580.61
2019-03-24T19:14:52.519Z,97587.16
2019-03-24T19:17:20.021Z,97587.95
2019-03-24T19:19:47.594Z,97588.23
2019-03-24T19:22:15.161Z,97593.09
2019-03-24T19:24:42.654Z,97591.59
2019-03-24T19:27:10.063Z,97589.23
2019-03-24T19:29:37.698Z,97585.08
2019-03-24T19:32:05.227Z,97581.75
2019-03-24T19:34:32.658Z,97584.20
2019-03-24T19:37:00.799Z,97583.98
2019-03-24T19:39:28.338Z,97587.53
2019-03-24T19:41:55.912Z,97586.22
2019-03-24T19:44:23.467Z,97588.28
2019-03-24T19:46:51.097Z,97598.09
2019-03-24T19:49:18.654Z,97601.63
2019-03-24T19:51:46.195Z,97600.97
2019-03-24T19:54:13.651Z,97598.64
2019-03-24T19:56:41.160Z,97603.31
2019-03-24T19:59:08.695Z,97600.22
2019-03-24T20:01:36.263Z,97605.69
2019-03-24T20:04:03.738Z,97604.86
2019-03-24T20:06:31.146Z,97608.23
2019-03-24T20:08:58.644Z,97612.78
2019-03-24T20:11:26.044Z,97618.72
2019-03-24T20:13:53.450Z,97623.13
2019-03-24T20:16:20.954Z,97624.77
2019-03-24T20:18:48.436Z,97621.61
2019-03-24T20:21:15.828Z,97625.78
2019-03-24T20:23:43.254Z,97619.95
2019-03-24T20:26:10.705Z,97617.08
2019-03-24T20:28:38.149Z,97617.02
2019-03-24T20:31:05.713Z,97621.91
2019-03-24T20:33:33.118Z,97619.31
2019-03-24T20:36:00.563Z,97622.27
2019-03-24T20:38:28.040Z,97624.38
2019-03-24T20:40:55.588Z,97626.72
2019-03-24T20:43:23.054Z,97632.34
2019-03-24T20:45:50.443Z,97637.27
2019-03-24T20:48:17.995Z,97631.99
2019-03-24T20:50:45.483Z,97627.14
2019-03-24T20:53:17.959Z,97625.65
2019-03-24T20:55:40.544Z,97634.81
2019-03-24T20:58:07.983Z,97632.17
2019-03-24T21:00:35.469Z,97630.09
2019-03-24T21:03:02.987Z,97632.94
2019-03-24T21:05:30.476Z,97637.20
2019-03-24T21:07:57.934Z,97633.15
2019-03-24T21:10:26.298Z,97635.45
2019-03-24T21:12:53.734Z,97629.18
2019-03-24T21:15:21.158Z,97644.56
2019-03-24T21:17:48.564Z,97647.75
2019-03-24T21:20:16.060Z,97651.13
2019-03-24T21:22:43.501Z,97650.88
2019-03-24T21:25:10.978Z,97648.63
2019-03-24T21:27:38.530Z,97646.80
2019-03-24T21:30:05.955Z,97650.70
2019-03-24T21:32:33.372Z,97655.97
2019-03-24T21:35:00.783Z,97654.17
2019-03-24T21:37:28.328Z,97643.78
2019-03-24T21:39:55.783Z,97643.42
2019-03-24T21:42:23.267Z,97637.77
2019-03-24T21:44:50.737Z,97636.51
2019-03-24T21:47:18.201Z,97636.25
2019-03-24T21:49:45.683Z,97626.50
2019-03-24T21:52:13.136Z,97625.96
2019-03-24T21:54:40.576Z,97629.14
2019-03-24T21:57:08.027Z,97622.39
2019-03-24T21:59:35.462Z,97616.51
2019-03-24T22:02:02.998Z,97619.66
2019-03-24T22:04:30.788Z,97610.91
2019-03-24T22:06:58.208Z,97611.30
2019-03-24T22:09:25.706Z,97621.00
2019-03-24T22:11:53.141Z,97621.63
2019-03-24T22:14:20.556Z,97627.45
2019-03-24T22:16:47.979Z,97631.53
2019-03-24T22:19:15.430Z,97634.63
2019-03-24T22:21:42.874Z,97631.81
2019-03-24T22:24:10.687Z,97629.58
2019-03-24T22:26:38.112Z,97637.33
2019-03-24T22:29:05.522Z,97635.77
2019-03-24T22:31:33.086Z,97629.16
2019-03-24T22:34:00.610Z,97629.37
2019-03-24T22:36:28.263Z,97625.81
2019-03-24T22:38:55.730Z,97619.03
2019-03-24T22:41:23.212Z,97616.37
2019-03-24T22:43:50.629Z,97611.88
2019-03-24T22:46:18.094Z,97622.08
2019-03-24T22:48:45.493Z,97625.22
2019-03-24T22:51:12.891Z,97628.86
2019-03-24T22:53:40.296Z,97622.70
2019-03-24T22:56:07.699Z,97621.33
2019-03-24T22:58:35.104Z,97615.27
2019-03-24T23:01:02.539Z,97607.42
2019-03-24T23:03:29.961Z,97603.56
2019-03-24T23:05:57.551Z,97605.05
2019-03-24T23:08:25.003Z,97599.70
2019-03-24T23:10:52.426Z,97615.23
2019-03-24T23:13:19.834Z,97612.84
2019-03-24T23:15:47.366Z,97618.92
2019-03-24T23:18:14.830Z,97621.06
2019-03-24T23:20:42.257Z,97613.69
2019-03-24T23:23:09.663Z,97619.11
2019-03-24T23:25:37.162Z,97617.60
2019-03-24T23:28:04.570Z,97617.95
2019-03-24T23:30:31.993Z,97606.19
2019-03-24T23:32:59.415Z,97600.08
2019-03-24T23:35:26.831Z,97596.91
2019-03-24T23:37:54.254Z,97599.13
2019-03-24T23:40:21.652Z,97605.48
2019-03-24T23:42:49.082Z,97608.30
2019-03-24T23:45:16.648Z,97617.64
2019-03-24T23:47:44.052Z,97614.39
2019-03-24T23:50:11.495Z,97615.11
2019-03-24T23:52:38.931Z,97607.96
2019-03-24T23:55:06.365Z,97603.28
2019-03-24T23:57:33.760Z,97606.91
